sensor_id;sensor_type;location;lat;lon;timestamp;temperature;humidity
22430;DHT22;11382;48.086;11.632;2024-03-25T00:01:53;3.90;99.90
22430;DHT22;11382;48.086;11.632;2024-03-25T00:04:19;4.00;99.90
22430;DHT22;11382;48.086;11.632;2024-03-25T00:06:49;3.90;99.90
22430;DHT22;11382;48.086;11.632;2024-03-25T00:09:17;3.80;99.90
22430;DHT22;11382;48.086;11.632;2024-03-25T00:11:44;3.90;99.90
22430;DHT22;11382;48.086;11.632;2024-03-25T00:14:10;3.90;99.90
22430;DHT22;11382;48.086;11.632;2024-03-25T00:16:37;3.90;99.90
22430;DHT22;11382;48.086;11.632;2024-03-25T00:19:03;3.90;99.90
22430;DHT22;11382;48.086;11.632;2024-03-25T00:21:30;3.90;99.90
22430;DHT22;11382;48.086;11.632;2024-03-25T00:23:57;3.80;99.90
22430;DHT22;11382;48.086;11.632;2024-03-25T00:26:26;3.90;99.90
22430;DHT22;11382;48.086;11.632;2024-03-25T00:28:52;3.80;99.90
22430;DHT22;11382;48.086;11.632;2024-03-25T00:31:19;3.80;99.90
22430;DHT22;11382;48.086;11.632;2024-03-25T00:33:45;3.80;99.90
22430;DHT22;11382;48.086;11.632;2024-03-25T00:36:13;3.80;99.90
22430;DHT22;11382;48.086;11.632;2024-03-25T00:38:39;3.80;99.90
22430;DHT22;11382;48.086;11.632;2024-03-25T00:41:07;3.70;99.90
22430;DHT22;11382;48.086;11.632;2024-03-25T00:43:33;3.60;99.90
22430;DHT22;11382;48.086;11.632;2024-03-25T00:46:00;3.60;99.90
22430;DHT22;11382;48.086;11.632;2024-03-25T00:48:26;3.60;99.90
22430;DHT22;11382;48.086;11.632;2024-03-25T00:50:55;3.60;99.90
22430;DHT22;11382;48.086;11.632;2024-03-25T00:53:21;3.60;99.90
22430;DHT22;11382;48.086;11.632;2024-03-25T00:55:48;3.60;99.90
22430;DHT22;11382;48.086;11.632;2024-03-25T00:58:15;3.60;99.90
22430;DHT22;11382;48.086;11.632;2024-03-25T01:00:42;3.60;99.90
22430;DHT22;11382;48.086;11.632;2024-03-25T01:03:08;3.60;99.90
22430;DHT22;11382;48.086;11.632;2024-03-25T01:05:36;3.60;99.90
22430;DHT22;11382;48.086;11.632;2024-03-25T01:08:02;3.60;99.90
22430;DHT22;11382;48.086;11.632;2024-03-25T01:10:29;3.50;99.90
22430;DHT22;11382;48.086;11.632;2024-03-25T01:12:56;3.50;99.90
22430;DHT22;11382;48.086;11.632;2024-03-25T01:15:24;3.50;99.90
22430;DHT22;11382;48.086;11.632;2024-03-25T01:17:50;3.50;99.90
22430;DHT22;11382;48.086;11.632;2024-03-25T01:20:18;3.50;99.90
22430;DHT22;11382;48.086;11.632;2024-03-25T01:22:44;3.50;99.90
22430;DHT22;11382;48.086;11.632;2024-03-25T01:25:11;3.50;99.90
22430;DHT22;11382;48.086;11.632;2024-03-25T01:27:37;3.50;99.90
22430;DHT22;11382;48.086;11.632;2024-03-25T01:30:05;3.50;99.90
22430;DHT22;11382;48.086;11.632;2024-03-25T01:32:33;3.50;99.90
22430;DHT22;11382;48.086;11.632;2024-03-25T01:35:00;3.40;99.90
22430;DHT22;11382;48.086;11.632;2024-03-25T01:37:26;3.40;99.90
22430;DHT22;11382;48.086;11.632;2024-03-25T01:39:53;3.40;99.90
22430;DHT22;11382;48.086;11.632;2024-03-25T01:42:19;3.40;99.90
22430;DHT22;11382;48.086;11.632;2024-03-25T01:44:46;3.40;99.90
22430;DHT22;11382;48.086;11.632;2024-03-25T01:47:12;3.50;99.90
22430;DHT22;11382;48.086;11.632;2024-03-25T01:49:41;3.50;99.90
22430;DHT22;11382;48.086;11.632;2024-03-25T01:52:07;3.40;99.90
22430;DHT22;11382;48.086;11.632;2024-03-25T01:54:34;3.50;99.90
22430;DHT22;11382;48.086;11.632;2024-03-25T01:57:01;3.50;99.90
22430;DHT22;11382;48.086;11.632;2024-03-25T01:59:28;3.50;99.90
22430;DHT22;11382;48.086;11.632;2024-03-25T02:01:55;3.40;99.90
22430;DHT22;11382;48.086;11.632;2024-03-25T02:04:23;3.50;99.90
22430;DHT22;11382;48.086;11.632;2024-03-25T02:06:50;3.50;99.90
22430;DHT22;11382;48.086;11.632;2024-03-25T02:09:18;3.50;99.90
22430;DHT22;11382;48.086;11.632;2024-03-25T02:11:45;3.40;99.90
22430;DHT22;11382;48.086;11.632;2024-03-25T02:14:13;3.50;99.90
22430;DHT22;11382;48.086;11.632;2024-03-25T02:16:39;3.50;99.90
22430;DHT22;11382;48.086;11.632;2024-03-25T02:19:07;3.50;99.90
22430;DHT22;11382;48.086;11.632;2024-03-25T02:21:33;3.50;99.90
22430;DHT22;11382;48.086;11.632;2024-03-25T02:24:05;3.60;99.90
22430;DHT22;11382;48.086;11.632;2024-03-25T02:26:36;3.50;99.90
22430;DHT22;11382;48.086;11.632;2024-03-25T02:29:03;3.60;99.90
22430;DHT22;11382;48.086;11.632;2024-03-25T02:31:29;3.50;99.90
22430;DHT22;11382;48.086;11.632;2024-03-25T02:33:56;3.50;99.90
22430;DHT22;11382;48.086;11.632;2024-03-25T02:36:22;3.50;99.90
22430;DHT22;11382;48.086;11.632;2024-03-25T02:38:49;3.50;99.90
22430;DHT22;11382;48.086;11.632;2024-03-25T02:41:15;3.60;99.90
22430;DHT22;11382;48.086;11.632;2024-03-25T02:43:44;3.60;99.90
22430;DHT22;11382;48.086;11.632;2024-03-25T02:46:10;3.60;99.90
22430;DHT22;11382;48.086;11.632;2024-03-25T02:48:38;3.60;99.90
22430;DHT22;11382;48.086;11.632;2024-03-25T02:51:04;3.60;99.90
22430;DHT22;11382;48.086;11.632;2024-03-25T02:53:31;3.60;99.90
22430;DHT22;11382;48.086;11.632;2024-03-25T02:55:57;3.60;99.90
22430;DHT22;11382;48.086;11.632;2024-03-25T02:58:24;3.60;99.90
22430;DHT22;11382;48.086;11.632;2024-03-25T03:00:52;3.50;99.90
22430;DHT22;11382;48.086;11.632;2024-03-25T03:03:19;3.60;99.90
22430;DHT22;11382;48.086;11.632;2024-03-25T03:05:45;3.50;99.90
22430;DHT22;11382;48.086;11.632;2024-03-25T03:08:12;3.60;99.90
22430;DHT22;11382;48.086;11.632;2024-03-25T03:10:38;3.60;99.90
22430;DHT22;11382;48.086;11.632;2024-03-25T03:13:05;3.60;99.90
22430;DHT22;11382;48.086;11.632;2024-03-25T03:15:31;3.60;99.90
22430;DHT22;11382;48.086;11.632;2024-03-25T03:17:59;3.60;99.90
22430;DHT22;11382;48.086;11.632;2024-03-25T03:20:26;3.60;99.90
22430;DHT22;11382;48.086;11.632;2024-03-25T03:22:53;3.60;99.90
22430;DHT22;11382;48.086;11.632;2024-03-25T03:25:19;3.70;99.90
22430;DHT22;11382;48.086;11.632;2024-03-25T03:27:46;3.60;99.90
22430;DHT22;11382;48.086;11.632;2024-03-25T03:30:12;3.60;99.90
22430;DHT22;11382;48.086;11.632;2024-03-25T03:32:39;3.60;99.90
22430;DHT22;11382;48.086;11.632;2024-03-25T03:35:07;3.60;99.90
22430;DHT22;11382;48.086;11.632;2024-03-25T03:37:34;3.60;99.90
22430;DHT22;11382;48.086;11.632;2024-03-25T03:40:00;3.60;99.90
22430;DHT22;11382;48.086;11.632;2024-03-25T03:42:27;3.60;99.90
22430;DHT22;11382;48.086;11.632;2024-03-25T03:44:54;3.60;99.90
22430;DHT22;11382;48.086;11.632;2024-03-25T03:47:21;3.60;99.90
22430;DHT22;11382;48.086;11.632;2024-03-25T03:49:47;3.60;99.90
22430;DHT22;11382;48.086;11.632;2024-03-25T03:52:16;3.50;99.90
22430;DHT22;11382;48.086;11.632;2024-03-25T03:54:42;3.50;99.90
22430;DHT22;11382;48.086;11.632;2024-03-25T03:57:09;3.40;99.90
22430;DHT22;11382;48.086;11.632;2024-03-25T03:59:35;3.40;99.90
22430;DHT22;11382;48.086;11.632;2024-03-25T04:02:02;3.30;99.90
22430;DHT22;11382;48.086;11.632;2024-03-25T04:04:28;3.20;99.90
22430;DHT22;11382;48.086;11.632;2024-03-25T04:06:56;3.20;99.90
22430;DHT22;11382;48.086;11.632;2024-03-25T04:09:24;3.10;99.90
22430;DHT22;11382;48.086;11.632;2024-03-25T04:11:51;3.10;99.90
22430;DHT22;11382;48.086;11.632;2024-03-25T04:14:17;3.00;99.90
22430;DHT22;11382;48.086;11.632;2024-03-25T04:16:44;3.00;99.90
22430;DHT22;11382;48.086;11.632;2024-03-25T04:19:10;2.90;99.90
22430;DHT22;11382;48.086;11.632;2024-03-25T04:21:37;2.90;99.90
22430;DHT22;11382;48.086;11.632;2024-03-25T04:24:05;2.90;99.90
22430;DHT22;11382;48.086;11.632;2024-03-25T04:26:34;2.90;99.90
22430;DHT22;11382;48.086;11.632;2024-03-25T04:29:00;2.90;99.90
22430;DHT22;11382;48.086;11.632;2024-03-25T04:31:27;2.90;99.90
22430;DHT22;11382;48.086;11.632;2024-03-25T04:33:53;2.90;99.90
22430;DHT22;11382;48.086;11.632;2024-03-25T04:36:20;2.90;99.90
22430;DHT22;11382;48.086;11.632;2024-03-25T04:38:46;2.80;99.90
22430;DHT22;11382;48.086;11.632;2024-03-25T04:41:12;2.80;99.90
22430;DHT22;11382;48.086;11.632;2024-03-25T04:43:40;2.80;99.90
22430;DHT22;11382;48.086;11.632;2024-03-25T04:46:06;2.90;99.90
22430;DHT22;11382;48.086;11.632;2024-03-25T04:48:32;2.90;99.90
22430;DHT22;11382;48.086;11.632;2024-03-25T04:50:58;2.80;99.90
22430;DHT22;11382;48.086;11.632;2024-03-25T04:53:24;2.90;99.90
22430;DHT22;11382;48.086;11.632;2024-03-25T04:55:50;2.90;99.90
22430;DHT22;11382;48.086;11.632;2024-03-25T04:58:17;2.90;99.90
22430;DHT22;11382;48.086;11.632;2024-03-25T05:00:44;2.90;99.90
22430;DHT22;11382;48.086;11.632;2024-03-25T05:03:10;2.90;99.90
22430;DHT22;11382;48.086;11.632;2024-03-25T05:05:37;2.90;99.90
22430;DHT22;11382;48.086;11.632;2024-03-25T05:08:04;2.90;99.90
22430;DHT22;11382;48.086;11.632;2024-03-25T05:10:30;2.90;99.90
22430;DHT22;11382;48.086;11.632;2024-03-25T05:12:56;2.90;99.90
22430;DHT22;11382;48.086;11.632;2024-03-25T05:15:22;2.90;99.90
22430;DHT22;11382;48.086;11.632;2024-03-25T05:17:55;2.90;99.90
22430;DHT22;11382;48.086;11.632;2024-03-25T05:20:22;2.90;99.90
22430;DHT22;11382;48.086;11.632;2024-03-25T05:22:48;3.00;99.90
22430;DHT22;11382;48.086;11.632;2024-03-25T05:25:14;3.00;99.90
22430;DHT22;11382;48.086;11.632;2024-03-25T05:27:40;3.00;99.90
22430;DHT22;11382;48.086;11.632;2024-03-25T05:30:07;3.00;99.90
22430;DHT22;11382;48.086;11.632;2024-03-25T05:32:33;3.10;99.90
22430;DHT22;11382;48.086;11.632;2024-03-25T05:35:01;3.20;99.90
22430;DHT22;11382;48.086;11.632;2024-03-25T05:37:27;3.30;99.90
22430;DHT22;11382;48.086;11.632;2024-03-25T05:39:53;3.30;99.90
22430;DHT22;11382;48.086;11.632;2024-03-25T05:42:19;3.40;99.90
22430;DHT22;11382;48.086;11.632;2024-03-25T05:44:45;3.50;99.90
22430;DHT22;11382;48.086;11.632;2024-03-25T05:47:12;3.60;99.90
22430;DHT22;11382;48.086;11.632;2024-03-25T05:49:40;3.90;99.90
22430;DHT22;11382;48.086;11.632;2024-03-25T05:52:07;4.30;99.90
22430;DHT22;11382;48.086;11.632;2024-03-25T05:54:33;4.60;99.90
22430;DHT22;11382;48.086;11.632;2024-03-25T05:56:59;5.00;99.90
22430;DHT22;11382;48.086;11.632;2024-03-25T05:59:26;5.40;99.90
22430;DHT22;11382;48.086;11.632;2024-03-25T06:01:52;5.60;99.90
22430;DHT22;11382;48.086;11.632;2024-03-25T06:04:18;6.10;99.90
22430;DHT22;11382;48.086;11.632;2024-03-25T06:06:44;6.50;99.90
22430;DHT22;11382;48.086;11.632;2024-03-25T06:09:12;6.60;99.90
22430;DHT22;11382;48.086;11.632;2024-03-25T06:11:38;7.30;99.90
22430;DHT22;11382;48.086;11.632;2024-03-25T06:14:04;7.60;99.90
22430;DHT22;11382;48.086;11.632;2024-03-25T06:16:30;7.70;99.90
22430;DHT22;11382;48.086;11.632;2024-03-25T06:18:56;7.80;99.90
22430;DHT22;11382;48.086;11.632;2024-03-25T06:21:22;8.30;99.90
22430;DHT22;11382;48.086;11.632;2024-03-25T06:23:48;8.40;99.90
22430;DHT22;11382;48.086;11.632;2024-03-25T06:26:16;8.80;99.90
22430;DHT22;11382;48.086;11.632;2024-03-25T06:28:42;9.10;99.90
22430;DHT22;11382;48.086;11.632;2024-03-25T06:31:08;9.40;99.90
22430;DHT22;11382;48.086;11.632;2024-03-25T06:33:53;9.60;99.90
22430;DHT22;11382;48.086;11.632;2024-03-25T06:36:37;9.60;99.90
22430;DHT22;11382;48.086;11.632;2024-03-25T06:39:04;9.80;99.90
22430;DHT22;11382;48.086;11.632;2024-03-25T06:41:31;10.30;99.90
22430;DHT22;11382;48.086;11.632;2024-03-25T06:43:57;10.40;99.90
22430;DHT22;11382;48.086;11.632;2024-03-25T06:46:24;10.50;99.90
22430;DHT22;11382;48.086;11.632;2024-03-25T06:48:50;10.80;99.90
22430;DHT22;11382;48.086;11.632;2024-03-25T06:51:16;11.00;99.90
22430;DHT22;11382;48.086;11.632;2024-03-25T06:53:42;10.20;99.90
22430;DHT22;11382;48.086;11.632;2024-03-25T06:56:09;9.30;99.90
22430;DHT22;11382;48.086;11.632;2024-03-25T06:58:36;9.50;99.90
22430;DHT22;11382;48.086;11.632;2024-03-25T07:01:06;10.50;99.90
22430;DHT22;11382;48.086;11.632;2024-03-25T07:03:33;11.90;99.90
22430;DHT22;11382;48.086;11.632;2024-03-25T07:06:01;12.60;99.90
22430;DHT22;11382;48.086;11.632;2024-03-25T07:08:28;13.70;99.80
22430;DHT22;11382;48.086;11.632;2024-03-25T07:10:54;13.80;97.70
22430;DHT22;11382;48.086;11.632;2024-03-25T07:13:20;14.20;96.70
22430;DHT22;11382;48.086;11.632;2024-03-25T07:15:50;14.50;95.40
22430;DHT22;11382;48.086;11.632;2024-03-25T07:18:17;15.30;94.60
22430;DHT22;11382;48.086;11.632;2024-03-25T07:20:43;16.50;92.10
22430;DHT22;11382;48.086;11.632;2024-03-25T07:23:10;16.80;90.00
22430;DHT22;11382;48.086;11.632;2024-03-25T07:25:37;17.00;88.00
22430;DHT22;11382;48.086;11.632;2024-03-25T07:28:03;16.70;87.90
22430;DHT22;11382;48.086;11.632;2024-03-25T07:30:30;17.10;87.90
22430;DHT22;11382;48.086;11.632;2024-03-25T07:32:58;17.50;84.40
22430;DHT22;11382;48.086;11.632;2024-03-25T07:35:25;18.00;83.00
22430;DHT22;11382;48.086;11.632;2024-03-25T07:37:52;17.30;80.80
22430;DHT22;11382;48.086;11.632;2024-03-25T07:40:18;17.10;80.10
22430;DHT22;11382;48.086;11.632;2024-03-25T07:42:45;18.00;80.70
22430;DHT22;11382;48.086;11.632;2024-03-25T07:45:11;18.20;75.30
22430;DHT22;11382;48.086;11.632;2024-03-25T07:47:37;18.20;77.50
22430;DHT22;11382;48.086;11.632;2024-03-25T07:50:06;18.50;76.10
22430;DHT22;11382;48.086;11.632;2024-03-25T07:52:32;19.50;73.10
22430;DHT22;11382;48.086;11.632;2024-03-25T07:54:58;19.20;70.20
22430;DHT22;11382;48.086;11.632;2024-03-25T07:57:24;19.10;71.50
22430;DHT22;11382;48.086;11.632;2024-03-25T07:59:51;18.50;70.80
22430;DHT22;11382;48.086;11.632;2024-03-25T08:02:17;18.80;71.50
22430;DHT22;11382;48.086;11.632;2024-03-25T08:04:43;18.90;70.70
22430;DHT22;11382;48.086;11.632;2024-03-25T08:07:11;18.80;71.30
22430;DHT22;11382;48.086;11.632;2024-03-25T08:09:37;19.80;68.70
22430;DHT22;11382;48.086;11.632;2024-03-25T08:12:03;19.70;67.20
22430;DHT22;11382;48.086;11.632;2024-03-25T08:14:30;19.40;68.20
22430;DHT22;11382;48.086;11.632;2024-03-25T08:16:56;19.00;67.50
22430;DHT22;11382;48.086;11.632;2024-03-25T08:19:22;19.00;67.70
22430;DHT22;11382;48.086;11.632;2024-03-25T08:21:48;18.80;65.40
22430;DHT22;11382;48.086;11.632;2024-03-25T08:24:16;18.30;67.20
22430;DHT22;11382;48.086;11.632;2024-03-25T08:26:42;18.90;67.00
22430;DHT22;11382;48.086;11.632;2024-03-25T08:29:08;19.90;67.80
22430;DHT22;11382;48.086;11.632;2024-03-25T08:31:34;20.30;62.50
22430;DHT22;11382;48.086;11.632;2024-03-25T08:34:00;18.60;62.40
22430;DHT22;11382;48.086;11.632;2024-03-25T08:36:26;18.30;67.10
22430;DHT22;11382;48.086;11.632;2024-03-25T08:38:53;18.70;65.00
22430;DHT22;11382;48.086;11.632;2024-03-25T08:41:20;19.90;62.50
22430;DHT22;11382;48.086;11.632;2024-03-25T08:43:46;19.60;61.90
22430;DHT22;11382;48.086;11.632;2024-03-25T08:46:12;19.70;62.60
22430;DHT22;11382;48.086;11.632;2024-03-25T08:48:38;18.90;62.20
22430;DHT22;11382;48.086;11.632;2024-03-25T08:51:05;18.30;64.60
22430;DHT22;11382;48.086;11.632;2024-03-25T08:53:31;20.00;61.80
22430;DHT22;11382;48.086;11.632;2024-03-25T08:55:57;20.40;58.80
22430;DHT22;11382;48.086;11.632;2024-03-25T08:58:24;21.10;58.20
22430;DHT22;11382;48.086;11.632;2024-03-25T09:00:51;21.30;56.70
22430;DHT22;11382;48.086;11.632;2024-03-25T09:03:17;21.40;55.00
22430;DHT22;11382;48.086;11.632;2024-03-25T09:05:43;22.60;53.40
22430;DHT22;11382;48.086;11.632;2024-03-25T09:08:09;21.40;53.00
22430;DHT22;11382;48.086;11.632;2024-03-25T09:10:36;19.30;55.00
22430;DHT22;11382;48.086;11.632;2024-03-25T09:13:20;18.40;57.00
22430;DHT22;11382;48.086;11.632;2024-03-25T09:15:48;20.30;54.60
22430;DHT22;11382;48.086;11.632;2024-03-25T09:18:14;19.20;55.10
22430;DHT22;11382;48.086;11.632;2024-03-25T09:20:40;19.30;54.60
22430;DHT22;11382;48.086;11.632;2024-03-25T09:23:06;21.00;52.70
22430;DHT22;11382;48.086;11.632;2024-03-25T09:25:32;21.50;51.60
22430;DHT22;11382;48.086;11.632;2024-03-25T09:27:59;22.40;49.80
22430;DHT22;11382;48.086;11.632;2024-03-25T09:30:25;22.80;48.60
22430;DHT22;11382;48.086;11.632;2024-03-25T09:32:52;22.50;48.00
22430;DHT22;11382;48.086;11.632;2024-03-25T09:35:18;21.00;50.10
22430;DHT22;11382;48.086;11.632;2024-03-25T09:37:45;19.20;54.10
22430;DHT22;11382;48.086;11.632;2024-03-25T09:40:12;20.90;52.90
22430;DHT22;11382;48.086;11.632;2024-03-25T09:42:45;20.60;50.50
22430;DHT22;11382;48.086;11.632;2024-03-25T09:45:15;20.30;52.50
22430;DHT22;11382;48.086;11.632;2024-03-25T09:47:43;21.40;52.20
22430;DHT22;11382;48.086;11.632;2024-03-25T09:50:12;22.00;49.00
22430;DHT22;11382;48.086;11.632;2024-03-25T09:52:39;21.80;49.00
22430;DHT22;11382;48.086;11.632;2024-03-25T09:55:06;21.60;48.50
22430;DHT22;11382;48.086;11.632;2024-03-25T09:57:33;22.00;45.20
22430;DHT22;11382;48.086;11.632;2024-03-25T10:00:00;22.60;45.90
22430;DHT22;11382;48.086;11.632;2024-03-25T10:02:28;22.30;44.30
22430;DHT22;11382;48.086;11.632;2024-03-25T10:04:55;21.00;46.80
22430;DHT22;11382;48.086;11.632;2024-03-25T10:07:23;22.90;46.50
22430;DHT22;11382;48.086;11.632;2024-03-25T10:09:50;24.90;45.10
22430;DHT22;11382;48.086;11.632;2024-03-25T10:12:16;24.60;43.20
22430;DHT22;11382;48.086;11.632;2024-03-25T10:14:43;24.30;41.80
22430;DHT22;11382;48.086;11.632;2024-03-25T10:17:09;23.30;43.10
22430;DHT22;11382;48.086;11.632;2024-03-25T10:19:36;23.20;44.20
22430;DHT22;11382;48.086;11.632;2024-03-25T10:22:03;23.80;44.30
22430;DHT22;11382;48.086;11.632;2024-03-25T10:24:39;25.80;42.40
22430;DHT22;11382;48.086;11.632;2024-03-25T10:27:06;26.70;40.80
22430;DHT22;11382;48.086;11.632;2024-03-25T10:29:32;27.00;40.70
22430;DHT22;11382;48.086;11.632;2024-03-25T10:32:01;25.30;42.00
22430;DHT22;11382;48.086;11.632;2024-03-25T10:34:28;25.50;42.80
22430;DHT22;11382;48.086;11.632;2024-03-25T10:36:58;25.50;41.00
22430;DHT22;11382;48.086;11.632;2024-03-25T10:39:27;25.60;39.70
22430;DHT22;11382;48.086;11.632;2024-03-25T10:41:58;25.10;40.70
22430;DHT22;11382;48.086;11.632;2024-03-25T10:44:26;24.90;41.70
22430;DHT22;11382;48.086;11.632;2024-03-25T10:46:55;24.50;41.90
22430;DHT22;11382;48.086;11.632;2024-03-25T10:49:32;25.10;40.20
22430;DHT22;11382;48.086;11.632;2024-03-25T10:52:01;25.30;41.10
22430;DHT22;11382;48.086;11.632;2024-03-25T10:54:30;25.00;41.40
22430;DHT22;11382;48.086;11.632;2024-03-25T10:57:01;25.60;42.50
22430;DHT22;11382;48.086;11.632;2024-03-25T10:59:30;25.50;41.10
22430;DHT22;11382;48.086;11.632;2024-03-25T11:01:56;24.80;41.20
22430;DHT22;11382;48.086;11.632;2024-03-25T11:04:23;24.50;41.10
22430;DHT22;11382;48.086;11.632;2024-03-25T11:06:50;24.20;41.60
22430;DHT22;11382;48.086;11.632;2024-03-25T11:09:23;23.00;42.20
22430;DHT22;11382;48.086;11.632;2024-03-25T11:11:50;20.90;43.60
22430;DHT22;11382;48.086;11.632;2024-03-25T11:14:18;19.30;45.50
22430;DHT22;11382;48.086;11.632;2024-03-25T11:16:51;20.90;48.00
22430;DHT22;11382;48.086;11.632;2024-03-25T11:19:18;21.80;42.90
22430;DHT22;11382;48.086;11.632;2024-03-25T11:21:44;22.80;43.60
22430;DHT22;11382;48.086;11.632;2024-03-25T11:24:10;23.00;41.40
22430;DHT22;11382;48.086;11.632;2024-03-25T11:26:40;22.10;39.40
22430;DHT22;11382;48.086;11.632;2024-03-25T11:29:07;22.30;42.20
22430;DHT22;11382;48.086;11.632;2024-03-25T11:31:37;21.80;41.60
22430;DHT22;11382;48.086;11.632;2024-03-25T11:34:05;22.00;40.70
22430;DHT22;11382;48.086;11.632;2024-03-25T11:36:31;22.60;41.30
22430;DHT22;11382;48.086;11.632;2024-03-25T11:38:58;23.10;41.80
22430;DHT22;11382;48.086;11.632;2024-03-25T11:41:24;22.80;41.60
22430;DHT22;11382;48.086;11.632;2024-03-25T11:43:50;23.10;39.70
22430;DHT22;11382;48.086;11.632;2024-03-25T11:46:20;23.60;41.00
22430;DHT22;11382;48.086;11.632;2024-03-25T11:48:47;24.30;39.10
22430;DHT22;11382;48.086;11.632;2024-03-25T11:51:16;22.90;39.00
22430;DHT22;11382;48.086;11.632;2024-03-25T11:53:42;23.10;39.60
22430;DHT22;11382;48.086;11.632;2024-03-25T11:56:10;24.30;40.80
22430;DHT22;11382;48.086;11.632;2024-03-25T11:58:37;22.80;39.80
22430;DHT22;11382;48.086;11.632;2024-03-25T12:01:03;24.30;39.30
22430;DHT22;11382;48.086;11.632;2024-03-25T12:03:30;24.40;37.70
22430;DHT22;11382;48.086;11.632;2024-03-25T12:05:57;23.30;39.60
22430;DHT22;11382;48.086;11.632;2024-03-25T12:08:24;21.40;40.80
22430;DHT22;11382;48.086;11.632;2024-03-25T12:10:51;19.20;42.00
22430;DHT22;11382;48.086;11.632;2024-03-25T12:13:36;18.00;46.40
22430;DHT22;11382;48.086;11.632;2024-03-25T12:16:04;16.00;46.70
22430;DHT22;11382;48.086;11.632;2024-03-25T12:18:30;15.80;49.10
22430;DHT22;11382;48.086;11.632;2024-03-25T12:20:58;16.40;51.40
22430;DHT22;11382;48.086;11.632;2024-03-25T12:23:29;16.00;50.70
22430;DHT22;11382;48.086;11.632;2024-03-25T12:25:55;16.30;53.50
22430;DHT22;11382;48.086;11.632;2024-03-25T12:28:22;15.40;50.50
22430;DHT22;11382;48.086;11.632;2024-03-25T12:30:50;15.50;53.60
22430;DHT22;11382;48.086;11.632;2024-03-25T12:33:16;15.00;53.30
22430;DHT22;11382;48.086;11.632;2024-03-25T12:35:45;14.30;54.90
22430;DHT22;11382;48.086;11.632;2024-03-25T12:38:23;14.60;55.10
22430;DHT22;11382;48.086;11.632;2024-03-25T12:40:50;14.90;56.20
22430;DHT22;11382;48.086;11.632;2024-03-25T12:43:16;14.90;53.30
22430;DHT22;11382;48.086;11.632;2024-03-25T12:45:42;15.00;56.20
22430;DHT22;11382;48.086;11.632;2024-03-25T12:48:08;14.00;52.20
22430;DHT22;11382;48.086;11.632;2024-03-25T12:50:35;14.10;53.20
22430;DHT22;11382;48.086;11.632;2024-03-25T12:53:01;14.00;55.00
22430;DHT22;11382;48.086;11.632;2024-03-25T12:55:29;12.80;52.90
22430;DHT22;11382;48.086;11.632;2024-03-25T12:57:55;12.50;54.10
22430;DHT22;11382;48.086;11.632;2024-03-25T13:00:22;12.60;54.10
22430;DHT22;11382;48.086;11.632;2024-03-25T13:02:48;12.50;54.30
22430;DHT22;11382;48.086;11.632;2024-03-25T13:05:14;13.00;59.00
22430;DHT22;11382;48.086;11.632;2024-03-25T13:07:41;13.40;56.00
22430;DHT22;11382;48.086;11.632;2024-03-25T13:10:07;13.40;55.30
22430;DHT22;11382;48.086;11.632;2024-03-25T13:12:35;13.20;55.10
22430;DHT22;11382;48.086;11.632;2024-03-25T13:15:01;13.10;55.00
22430;DHT22;11382;48.086;11.632;2024-03-25T13:17:27;12.80;56.50
22430;DHT22;11382;48.086;11.632;2024-03-25T13:19:53;12.00;55.70
22430;DHT22;11382;48.086;11.632;2024-03-25T13:22:19;11.80;55.30
22430;DHT22;11382;48.086;11.632;2024-03-25T13:24:45;11.90;55.50
22430;DHT22;11382;48.086;11.632;2024-03-25T13:27:12;11.70;55.70
22430;DHT22;11382;48.086;11.632;2024-03-25T13:29:40;12.30;56.50
22430;DHT22;11382;48.086;11.632;2024-03-25T13:32:06;12.70;55.80
22430;DHT22;11382;48.086;11.632;2024-03-25T13:34:32;12.80;54.20
22430;DHT22;11382;48.086;11.632;2024-03-25T13:36:58;12.80;54.40
22430;DHT22;11382;48.086;11.632;2024-03-25T13:39:25;12.90;55.20
22430;DHT22;11382;48.086;11.632;2024-03-25T13:41:51;12.00;51.80
22430;DHT22;11382;48.086;11.632;2024-03-25T13:44:17;12.30;55.70
22430;DHT22;11382;48.086;11.632;2024-03-25T13:46:44;12.30;54.10
22430;DHT22;11382;48.086;11.632;2024-03-25T13:49:10;12.20;53.50
22430;DHT22;11382;48.086;11.632;2024-03-25T13:51:37;11.60;54.90
22430;DHT22;11382;48.086;11.632;2024-03-25T13:54:03;11.50;55.50
22430;DHT22;11382;48.086;11.632;2024-03-25T13:56:30;12.10;58.50
22430;DHT22;11382;48.086;11.632;2024-03-25T13:58:56;11.80;56.10
22430;DHT22;11382;48.086;11.632;2024-03-25T14:01:22;11.50;55.50
22430;DHT22;11382;48.086;11.632;2024-03-25T14:03:50;11.70;58.40
22430;DHT22;11382;48.086;11.632;2024-03-25T14:06:16;11.50;55.60
22430;DHT22;11382;48.086;11.632;2024-03-25T14:08:43;11.50;55.40
22430;DHT22;11382;48.086;11.632;2024-03-25T14:11:09;11.70;56.40
22430;DHT22;11382;48.086;11.632;2024-03-25T14:13:35;12.40;61.70
22430;DHT22;11382;48.086;11.632;2024-03-25T14:16:02;12.60;58.10
22430;DHT22;11382;48.086;11.632;2024-03-25T14:18:28;12.80;55.50
22430;DHT22;11382;48.086;11.632;2024-03-25T14:20:55;12.20;54.90
22430;DHT22;11382;48.086;11.632;2024-03-25T14:23:22;12.10;55.10
22430;DHT22;11382;48.086;11.632;2024-03-25T14:25:48;11.70;55.20
22430;DHT22;11382;48.086;11.632;2024-03-25T14:28:14;11.70;57.10
22430;DHT22;11382;48.086;11.632;2024-03-25T14:30:40;11.60;57.30
22430;DHT22;11382;48.086;11.632;2024-03-25T14:33:06;11.60;57.50
22430;DHT22;11382;48.086;11.632;2024-03-25T14:35:32;11.90;60.50
22430;DHT22;11382;48.086;11.632;2024-03-25T14:38:00;11.90;62.10
22430;DHT22;11382;48.086;11.632;2024-03-25T14:40:26;12.10;63.30
22430;DHT22;11382;48.086;11.632;2024-03-25T14:42:52;11.90;61.60
22430;DHT22;11382;48.086;11.632;2024-03-25T14:45:19;11.70;59.60
22430;DHT22;11382;48.086;11.632;2024-03-25T14:47:45;11.70;57.80
22430;DHT22;11382;48.086;11.632;2024-03-25T14:50:11;11.80;59.40
22430;DHT22;11382;48.086;11.632;2024-03-25T14:52:38;11.80;58.20
22430;DHT22;11382;48.086;11.632;2024-03-25T14:55:06;11.30;59.50
22430;DHT22;11382;48.086;11.632;2024-03-25T14:57:32;11.10;60.10
22430;DHT22;11382;48.086;11.632;2024-03-25T14:59:58;11.20;61.50
22430;DHT22;11382;48.086;11.632;2024-03-25T15:02:24;11.40;62.20
22430;DHT22;11382;48.086;11.632;2024-03-25T15:04:50;11.40;62.50
22430;DHT22;11382;48.086;11.632;2024-03-25T15:07:17;11.30;62.40
22430;DHT22;11382;48.086;11.632;2024-03-25T15:09:43;11.50;62.30
22430;DHT22;11382;48.086;11.632;2024-03-25T15:12:10;11.30;59.70
22430;DHT22;11382;48.086;11.632;2024-03-25T15:14:36;11.30;59.20
22430;DHT22;11382;48.086;11.632;2024-03-25T15:17:03;11.20;61.70
22430;DHT22;11382;48.086;11.632;2024-03-25T15:19:29;11.10;62.70
22430;DHT22;11382;48.086;11.632;2024-03-25T15:21:55;11.00;63.80